Time;durP1;ratioP1;P1;durP2;ratioP2;P2;SDS_P1;SDS_P2;PMS_P1;PMS_P2;Temp;Humidity;BMP_temperature;BMP_pressure;BME280_temperature;BME280_humidity;BME280_pressure;Samples;Min_cycle;Max_cycle;Signal;HPM_P1;HPM_P2
2022/09/03 00:04:45;;;;;;;3.42;1.58;;;;;;;15.03;43.28;99553.72;10347881;28;20045;-58
2022/09/03 00:09:54;;;;;;;7.65;1.80;;;;;;;15.00;43.40;99556.59;10348080;28;20046;-58
2022/09/03 00:15:13;;;;;;;2.90;1.90;;;;;;;14.75;43.81;99558.78;10347111;28;20896;-56
2022/09/03 00:20:41;;;;;;;2.67;1.60;;;;;;;14.52;44.76;99561.50;10346881;28;20057;-57
2022/09/03 00:26:00;;;;;;;3.58;1.70;;;;;;;14.31;44.92;99560.59;10345402;28;20132;-57
2022/09/03 00:31:35;;;;;;;4.68;1.67;;;;;;;13.85;47.23;99553.88;10348090;28;20050;-57
2022/09/03 00:36:41;;;;;;;4.57;1.90;;;;;;;13.77;46.62;99551.84;10345978;28;20300;-58
2022/09/03 00:42:08;;;;;;;4.40;1.80;;;;;;;13.80;46.90;99553.41;10344630;28;20096;-58
2022/09/03 00:47:12;;;;;;;2.53;1.70;;;;;;;13.69;47.21;99551.63;10345302;28;20822;-56
2022/09/03 00:52:23;;;;;;;5.40;1.70;;;;;;;13.50;47.91;99546.97;10344374;28;20101;-57
2022/09/03 00:57:40;;;;;;;4.80;1.75;;;;;;;13.70;47.80;99546.22;10345645;28;20520;-57
2022/09/03 01:02:57;;;;;;;5.10;1.80;;;;;;;13.83;47.16;99551.38;10344916;28;20056;-58
2022/09/03 01:08:31;;;;;;;5.90;2.53;;;;;;;13.85;47.86;99554.72;10344703;28;20064;-57
2022/09/03 01:14:05;;;;;;;2.95;1.70;;;;;;;13.73;47.90;99540.75;10344892;28;20061;-58
2022/09/03 01:19:29;;;;;;;3.60;1.83;;;;;;;13.55;48.56;99557.97;10351287;28;20558;-58
2022/09/03 01:24:33;;;;;;;4.50;1.70;;;;;;;13.26;48.62;99548.81;10344217;28;20049;-58
2022/09/03 01:30:02;;;;;;;5.53;1.60;;;;;;;13.42;48.66;99548.47;10344033;28;20540;-58
2022/09/03 01:35:47;;;;;;;5.28;1.80;;;;;;;13.44;48.55;99544.81;10343652;28;20088;-57
2022/09/03 01:46:38;;;;;;;5.38;1.70;;;;;;;13.57;48.23;99544.69;10343203;28;20057;-57
2022/09/03 01:51:40;;;;;;;3.83;2.03;;;;;;;13.58;47.85;99551.59;10343054;28;20061;-57
2022/09/03 01:57:06;;;;;;;3.20;1.52;;;;;;;13.32;48.59;99550.97;10343547;28;20058;-58
2022/09/03 02:02:29;;;;;;;4.30;1.58;;;;;;;13.42;47.88;99537.97;10345862;28;20104;-58
2022/09/03 02:07:34;;;;;;;3.30;1.80;;;;;;;13.46;48.02;99539.44;10351426;28;20046;-57
2022/09/03 02:12:37;;;;;;;3.75;1.60;;;;;;;13.54;47.63;99540.50;10349967;28;20062;-57
2022/09/03 02:17:41;;;;;;;3.65;1.65;;;;;;;13.65;47.50;99547.56;10351163;28;20058;-58
2022/09/03 02:22:43;;;;;;;4.35;1.50;;;;;;;13.59;47.56;99546.25;10350624;28;20501;-56
2022/09/03 02:27:47;;;;;;;3.33;1.67;;;;;;;13.43;47.59;99542.31;10351782;28;20061;-57
2022/09/03 02:32:48;;;;;;;3.47;1.75;;;;;;;13.38;47.73;99549.66;10351020;28;20054;-57
2022/09/03 02:37:50;;;;;;;3.90;1.70;;;;;;;13.36;47.82;99541.06;10348674;28;20052;-56
2022/09/03 02:42:52;;;;;;;4.45;1.80;;;;;;;13.29;48.01;99537.25;10350845;28;20049;-58
2022/09/03 02:47:59;;;;;;;4.07;1.70;;;;;;;13.18;48.43;99538.06;10350798;28;20048;-58
2022/09/03 02:53:01;;;;;;;6.93;1.88;;;;;;;13.39;47.47;99527.72;10349890;28;20413;-58
2022/09/03 02:58:05;;;;;;;5.45;1.83;;;;;;;13.48;46.96;99522.59;10349895;28;20064;-58
2022/09/03 03:03:07;;;;;;;3.00;1.60;;;;;;;13.28;47.21;99519.81;10356489;28;20077;-57
2022/09/03 03:08:11;;;;;;;4.35;1.83;;;;;;;13.38;47.37;99533.91;10350878;28;20060;-58
2022/09/03 03:13:13;;;;;;;3.42;1.63;;;;;;;13.53;46.98;99535.38;10350226;28;20433;-58
2022/09/03 03:18:16;;;;;;;3.72;1.60;;;;;;;13.16;47.79;99532.09;10349935;28;20064;-58
2022/09/03 03:23:18;;;;;;;6.35;1.80;;;;;;;13.10;47.76;99529.94;10348481;28;20609;-58
2022/09/03 03:28:19;;;;;;;5.85;1.50;;;;;;;13.45;47.47;99536.00;10350416;28;20058;-58
2022/09/03 03:33:21;;;;;;;4.45;1.70;;;;;;;13.37;47.79;99529.63;10348073;28;20080;-56
2022/09/03 03:38:24;;;;;;;3.42;1.63;;;;;;;13.16;48.33;99526.00;10349048;28;20065;-58
2022/09/03 03:43:25;;;;;;;4.53;1.70;;;;;;;13.35;48.23;99528.91;10349510;28;20133;-58
2022/09/03 03:48:27;;;;;;;5.63;1.85;;;;;;;13.51;48.56;99530.25;10349243;28;20721;-58
2022/09/03 03:53:29;;;;;;;3.10;1.90;;;;;;;13.43;48.31;99527.34;10348311;28;20049;-58
2022/09/03 03:58:32;;;;;;;5.03;1.80;;;;;;;13.20;48.48;99532.69;10347365;28;20064;-58
2022/09/03 04:03:35;;;;;;;4.28;2.03;;;;;;;13.37;48.05;99527.81;10349436;28;20049;-58
2022/09/03 04:08:38;;;;;;;4.13;1.73;;;;;;;13.56;47.72;99522.00;10348681;28;20060;-58
2022/09/03 04:13:42;;;;;;;3.58;1.58;;;;;;;13.58;47.78;99522.69;10347908;28;20054;-58
2022/09/03 04:18:44;;;;;;;3.53;1.63;;;;;;;13.52;47.75;99512.69;10347285;28;20049;-57
2022/09/03 04:23:47;;;;;;;4.10;1.70;;;;;;;13.40;47.71;99505.72;10347272;28;20632;-58
2022/09/03 04:28:48;;;;;;;3.13;1.90;;;;;;;13.34;47.70;99509.66;10348116;28;20221;-58
2022/09/03 04:33:50;;;;;;;4.47;1.75;;;;;;;13.38;48.64;99512.88;10348154;28;20157;-58
2022/09/03 04:38:53;;;;;;;4.05;1.73;;;;;;;13.41;48.62;99513.47;10346890;28;20046;-58
2022/09/03 04:43:57;;;;;;;5.88;1.80;;;;;;;13.49;48.21;99515.56;10346836;28;20053;-58
2022/09/03 04:48:59;;;;;;;4.95;1.67;;;;;;;13.67;47.94;99532.50;10347416;28;20050;-58
2022/09/03 04:54:01;;;;;;;4.68;1.70;;;;;;;13.82;47.99;99522.56;10345239;28;20053;-58
2022/09/03 04:59:05;;;;;;;3.00;1.55;;;;;;;13.65;48.16;99516.03;10346041;28;20045;-57
2022/09/03 05:04:07;;;;;;;3.78;1.70;;;;;;;13.67;49.02;99519.38;10347108;28;20079;-58
2022/09/03 05:09:08;;;;;;;3.13;1.85;;;;;;;13.71;48.80;99520.78;10346490;28;20052;-58
2022/09/03 05:14:11;;;;;;;3.13;1.50;;;;;;;14.01;48.02;99522.75;10346155;28;20184;-58
2022/09/03 05:19:13;;;;;;;3.35;1.70;;;;;;;13.77;48.34;99518.53;10346386;28;20494;-58
2022/09/03 05:24:15;;;;;;;2.58;1.50;;;;;;;14.02;47.97;99533.19;10344554;28;20056;-59
2022/09/03 05:29:18;;;;;;;4.60;1.83;;;;;;;14.05;48.97;99538.19;10344150;28;20056;-58
2022/09/03 05:34:20;;;;;;;5.43;1.77;;;;;;;14.20;48.40;99549.25;10345411;28;20057;-58
2022/09/03 05:39:21;;;;;;;2.95;1.55;;;;;;;14.45;48.18;99536.63;10345005;28;20053;-58
2022/09/03 05:44:23;;;;;;;5.13;1.70;;;;;;;14.65;48.16;99545.56;10345228;28;20050;-59
2022/09/03 05:49:25;;;;;;;7.70;1.58;;;;;;;14.79;47.47;99547.03;10344132;28;20046;-59
2022/09/03 05:54:27;;;;;;;6.45;1.75;;;;;;;14.75;47.57;99553.53;10343365;28;20068;-58
2022/09/03 05:59:29;;;;;;;7.15;1.80;;;;;;;14.61;47.59;99548.56;10345067;28;20050;-58
2022/09/03 06:04:31;;;;;;;4.65;1.80;;;;;;;14.69;48.13;99560.13;10343703;28;20489;-58
2022/09/03 06:09:33;;;;;;;5.03;1.70;;;;;;;14.77;49.41;99559.50;10343858;28;20049;-59
2022/09/03 06:14:35;;;;;;;3.53;1.92;;;;;;;14.94;50.81;99567.66;10344104;28;20552;-58
2022/09/03 06:19:37;;;;;;;5.93;1.70;;;;;;;15.00;50.02;99555.78;10343185;28;20060;-58
2022/09/03 06:24:39;;;;;;;2.88;1.50;;;;;;;15.04;49.38;99562.47;10344446;28;20056;-58
2022/09/03 06:29:40;;;;;;;3.15;1.80;;;;;;;15.06;50.53;99556.09;10342992;28;20046;-58
2022/09/03 06:34:42;;;;;;;3.72;1.80;;;;;;;15.31;51.10;99566.22;10347221;28;20060;-58
2022/09/03 06:39:45;;;;;;;5.68;1.80;;;;;;;15.37;50.89;99559.59;10351924;28;20046;-58
2022/09/03 06:44:47;;;;;;;7.38;1.73;;;;;;;15.71;50.33;99574.25;10351098;28;20054;-58
2022/09/03 06:49:49;;;;;;;3.33;1.63;;;;;;;16.00;49.82;99569.88;10350086;28;20073;-59
2022/09/03 06:54:51;;;;;;;3.50;1.63;;;;;;;16.24;50.24;99582.75;10351725;28;20069;-58
2022/09/03 06:59:54;;;;;;;3.22;1.80;;;;;;;16.37;50.07;99582.47;10350895;28;20045;-58
2022/09/03 07:04:56;;;;;;;4.93;2.10;;;;;;;16.34;50.54;99573.03;10349205;28;20054;-58
2022/09/03 07:09:57;;;;;;;5.13;2.10;;;;;;;16.15;50.96;99575.63;10350715;28;20046;-58
2022/09/03 07:14:59;;;;;;;7.13;3.78;;;;;;;15.91;52.25;99575.97;10350235;28;20054;-58
2022/09/03 07:20:01;;;;;;;6.72;4.15;;;;;;;16.03;52.58;99577.53;10351066;28;20054;-59
2022/09/03 07:25:02;;;;;;;7.28;4.05;;;;;;;15.81;53.12;99569.84;10350211;28;20789;-59
2022/09/03 07:30:08;;;;;;;4.85;3.75;;;;;;;15.62;53.36;99568.91;10349467;28;20052;-59
2022/09/03 07:35:10;;;;;;;5.07;3.00;;;;;;;15.67;52.31;99564.94;10347898;28;20629;-58
2022/09/03 07:40:12;;;;;;;4.95;2.72;;;;;;;15.96;52.91;99570.28;10348723;28;20049;-58
2022/09/03 07:45:14;;;;;;;5.47;2.75;;;;;;;16.08;53.89;99564.78;10348353;28;20060;-59
2022/09/03 07:50:16;;;;;;;4.78;2.70;;;;;;;16.36;54.91;99575.53;10348613;28;20501;-59
2022/09/03 07:55:17;;;;;;;5.03;2.60;;;;;;;16.54;54.94;99571.28;10349383;28;20060;-58
2022/09/03 08:00:19;;;;;;;6.00;2.50;;;;;;;16.86;53.83;99577.09;10348620;28;20049;-58
2022/09/03 08:05:21;;;;;;;4.28;2.60;;;;;;;17.11;53.24;99573.91;10349449;28;20891;-58
2022/09/03 08:10:23;;;;;;;3.35;2.22;;;;;;;17.22;52.62;99578.19;10345494;28;20053;-59
2022/09/03 08:15:25;;;;;;;4.10;2.25;;;;;;;17.39;52.57;99588.03;10347962;28;20149;-59
2022/09/03 08:20:27;;;;;;;3.92;2.35;;;;;;;17.37;52.92;99593.47;10347413;28;20053;-59
2022/09/03 08:25:30;;;;;;;6.40;2.65;;;;;;;17.18;53.74;99597.94;10346939;28;20688;-59
2022/09/03 08:30:33;;;;;;;5.35;2.60;;;;;;;17.02;54.28;99601.16;10348031;28;20050;-59
2022/09/03 08:35:36;;;;;;;3.85;2.53;;;;;;;17.01;53.78;99596.84;10347757;28;20141;-58
2022/09/03 08:40:38;;;;;;;6.88;2.90;;;;;;;16.83;54.52;99601.97;10347416;28;20129;-59
2022/09/03 08:45:40;;;;;;;6.47;2.63;;;;;;;17.10;54.98;99609.19;10341939;28;20049;-59
2022/09/03 08:50:47;;;;;;;5.20;2.95;;;;;;;17.33;54.45;99602.69;10343999;28;20426;-59
2022/09/03 08:55:52;;;;;;;4.25;2.35;;;;;;;17.77;53.77;99603.81;10343948;28;20501;-59
2022/09/03 09:01:02;;;;;;;5.47;2.67;;;;;;;18.04;53.52;99603.81;10342929;28;20073;-59
2022/09/03 09:06:28;;;;;;;4.32;2.58;;;;;;;18.07;54.36;99597.41;10345324;28;20598;-59
2022/09/03 09:11:54;;;;;;;4.97;2.60;;;;;;;18.34;53.40;99600.09;10346037;28;20152;-59
2022/09/03 09:17:14;;;;;;;5.68;2.63;;;;;;;18.52;53.22;99596.44;10345069;28;20561;-59
2022/09/03 09:22:45;;;;;;;4.43;2.40;;;;;;;18.91;52.65;99586.38;10344921;28;20046;-59
2022/09/03 09:28:02;;;;;;;8.73;2.50;;;;;;;19.62;50.62;99594.22;10343992;28;20490;-60
2022/09/03 09:33:04;;;;;;;4.45;2.08;;;;;;;20.40;48.43;99588.59;10341053;28;20610;-59
2022/09/03 09:38:06;;;;;;;6.80;2.30;;;;;;;20.69;47.60;99583.72;10344409;28;20111;-59
2022/09/03 09:43:20;;;;;;;6.57;2.30;;;;;;;20.74;48.18;99573.41;10345116;28;20075;-59
2022/09/03 09:48:30;;;;;;;4.22;2.30;;;;;;;21.04;47.77;99577.25;10341721;28;20053;-60
2022/09/03 09:53:33;;;;;;;4.95;2.00;;;;;;;21.35;46.81;99574.78;10344438;28;20137;-59
2022/09/03 09:58:35;;;;;;;4.90;2.10;;;;;;;21.60;46.01;99571.03;10343695;28;20124;-59
2022/09/03 10:03:46;;;;;;;4.55;2.65;;;;;;;21.48;45.39;99575.06;10344044;28;20049;-59
2022/09/03 10:08:48;;;;;;;5.88;2.17;;;;;;;21.44;45.76;99579.06;10343716;28;20156;-60
2022/09/03 10:13:53;;;;;;;6.13;2.50;;;;;;;21.40;45.87;99583.91;10329216;28;20064;-59
2022/09/03 10:19:08;;;;;;;4.30;1.88;;;;;;;20.97;47.07;99594.88;10336960;28;20046;-59
2022/09/03 10:24:38;;;;;;;8.60;2.30;;;;;;;21.00;46.91;99583.91;10335780;28;20049;-59
2022/09/03 10:29:40;;;;;;;8.13;2.35;;;;;;;20.92;46.11;99578.59;10338075;28;20112;-59
2022/09/03 10:34:59;;;;;;;6.68;2.28;;;;;;;20.73;46.86;99590.38;10336201;28;20085;-60
2022/09/03 10:40:31;;;;;;;6.75;2.00;;;;;;;20.30;47.49;99585.25;10336571;28;20896;-60
2022/09/03 10:45:45;;;;;;;3.45;2.00;;;;;;;20.24;48.36;99584.09;10338547;28;20057;-59
2022/09/03 10:50:50;;;;;;;4.60;2.00;;;;;;;20.29;48.33;99580.97;10334698;28;20049;-59
2022/09/03 10:56:00;;;;;;;3.45;1.77;;;;;;;20.44;48.17;99589.13;10342805;28;20060;-60
2022/09/03 11:01:21;;;;;;;5.40;1.90;;;;;;;20.16;48.17;99585.88;10336488;28;20058;-59
2022/09/03 11:06:27;;;;;;;3.38;1.70;;;;;;;20.26;48.60;99582.09;10342222;28;20060;-59
2022/09/03 11:11:32;;;;;;;3.47;1.80;;;;;;;20.31;48.44;99581.63;10337858;28;20060;-59
2022/09/03 11:16:58;;;;;;;4.07;2.00;;;;;;;20.58;47.28;99576.06;10342113;28;20054;-59
2022/09/03 11:22:01;;;;;;;3.17;1.80;;;;;;;21.04;46.80;99563.97;10336540;28;20053;-62
2022/09/03 11:27:42;;;;;;;4.03;1.83;;;;;;;21.27;45.84;99572.94;10347990;28;20527;-59
2022/09/03 11:32:53;;;;;;;4.70;1.80;;;;;;;21.56;45.93;99553.75;10341571;28;20056;-59
2022/09/03 11:38:04;;;;;;;4.13;2.03;;;;;;;21.99;45.36;99550.59;10341188;28;20180;-59
2022/09/03 11:43:24;;;;;;;2.88;1.70;;;;;;;21.93;44.60;99548.63;10349019;28;20128;-59
2022/09/03 11:48:39;;;;;;;2.93;1.80;;;;;;;21.69;44.47;99540.75;10347019;28;20050;-59
2022/09/03 11:53:41;;;;;;;5.50;1.80;;;;;;;21.63;45.26;99536.97;10347765;28;20504;-59
2022/09/03 11:58:43;;;;;;;4.18;1.65;;;;;;;21.68;45.73;99531.94;10348080;28;20060;-59
2022/09/03 12:03:58;;;;;;;4.25;1.80;;;;;;;21.80;45.07;99524.44;10346407;28;20058;-59
2022/09/03 12:09:24;;;;;;;4.15;1.90;;;;;;;21.95;44.67;99525.34;10348150;28;20060;-59
2022/09/03 12:14:39;;;;;;;3.10;1.70;;;;;;;22.01;45.30;99524.63;10347409;28;20064;-59
2022/09/03 12:19:56;;;;;;;5.28;2.15;;;;;;;22.75;43.28;99515.22;10347328;28;20060;-59
2022/09/03 12:25:12;;;;;;;2.60;1.70;;;;;;;23.02;42.44;99514.66;10346133;28;20042;-59
2022/09/03 12:30:17;;;;;;;5.13;1.83;;;;;;;23.19;42.19;99516.13;10347084;28;20053;-59
2022/09/03 12:35:22;;;;;;;6.20;1.73;;;;;;;22.97;43.04;99515.19;10345386;28;20060;-59
2022/09/03 12:40:43;;;;;;;4.47;1.73;;;;;;;23.24;42.57;99508.44;10344395;28;20045;-59
2022/09/03 12:46:13;;;;;;;2.95;1.50;;;;;;;23.46;42.39;99500.38;10345716;28;20072;-59
2022/09/03 12:51:15;;;;;;;3.10;1.60;;;;;;;23.34;42.24;99498.31;10345581;28;20054;-59
2022/09/03 12:56:38;;;;;;;2.42;1.58;;;;;;;23.40;42.16;99506.44;10345657;28;20414;-59
2022/09/03 13:01:51;;;;;;;3.50;1.90;;;;;;;23.48;41.80;99495.69;10343335;28;20053;-59
2022/09/03 13:07:22;;;;;;;3.42;1.80;;;;;;;23.45;41.86;99493.38;10342755;28;20148;-59
2022/09/03 13:12:31;;;;;;;3.95;1.83;;;;;;;23.51;41.68;99488.31;10344975;28;20467;-59
2022/09/03 13:17:46;;;;;;;;;;;;;;;23.38;42.19;99488.94;10345962;28;20057;-59
2022/09/03 13:23:02;;;;;;;3.35;1.77;;;;;;;23.58;41.84;99494.56;10346277;28;19925;-59
2022/09/03 13:28:44;;;;;;;4.95;1.65;;;;;;;23.70;41.52;99493.91;10345318;28;20050;-59
2022/09/03 13:34:12;;;;;;;4.55;1.70;;;;;;;23.64;41.29;99500.00;10341252;28;20383;-59
2022/09/03 13:39:25;;;;;;;3.33;1.80;;;;;;;23.42;41.67;99506.25;10342229;28;20141;-59
2022/09/03 13:45:08;;;;;;;4.88;1.80;;;;;;;23.19;42.14;99505.47;10343711;28;20058;-59
2022/09/03 13:50:22;;;;;;;3.60;2.10;;;;;;;23.21;42.06;99498.09;10365580;28;20046;-59
2022/09/03 13:55:30;;;;;;;3.35;1.90;;;;;;;23.06;42.35;99499.94;10360849;28;20149;-59
2022/09/03 14:01:08;;;;;;;4.30;1.80;;;;;;;23.03;42.67;99498.47;10336826;28;20050;-59
2022/09/03 14:07:01;;;;;;;4.65;1.70;;;;;;;23.21;42.07;99493.59;10344141;28;20054;-59
2022/09/03 14:12:27;;;;;;;2.83;1.70;;;;;;;23.26;41.87;99496.56;10351774;28;20069;-59
2022/09/03 14:17:56;;;;;;;2.30;1.50;;;;;;;23.42;41.30;99498.25;10342620;28;20064;-59
2022/09/03 14:23:19;;;;;;;4.43;1.65;;;;;;;23.61;40.95;99489.69;10342014;28;20050;-59
2022/09/03 14:28:34;;;;;;;4.03;1.75;;;;;;;23.75;40.89;99490.69;10343102;28;20046;-59
2022/09/03 14:33:54;;;;;;;3.17;1.70;;;;;;;24.05;40.26;99482.44;10340186;28;20409;-59
2022/09/03 14:39:05;;;;;;;;;;;;;;;23.39;41.33;99490.59;10344679;28;20132;-59
2022/09/03 14:44:21;;;;;;;3.58;1.92;;;;;;;23.57;41.16;99488.41;10341472;28;19956;-59
2022/09/03 14:49:45;;;;;;;2.88;1.73;;;;;;;23.44;41.23;99490.88;10343204;28;20049;-59
2022/09/03 14:54:56;;;;;;;3.28;1.70;;;;;;;23.39;41.38;99495.94;10344053;28;20061;-59
2022/09/03 14:59:57;;;;;;;3.92;1.77;;;;;;;23.43;41.35;99483.91;10351355;28;20053;-59
2022/09/03 15:05:14;;;;;;;6.28;1.90;;;;;;;23.46;41.29;99491.53;10351194;28;20132;-59
2022/09/03 15:10:43;;;;;;;3.28;1.67;;;;;;;23.54;40.95;99493.28;10349299;28;20052;-59
2022/09/03 15:15:57;;;;;;;4.18;2.05;;;;;;;23.31;41.69;99488.00;10350001;28;20148;-59
2022/09/03 15:21:40;;;;;;;5.82;1.73;;;;;;;23.31;42.02;99483.50;10349683;28;20220;-59
2022/09/03 15:26:44;;;;;;;3.58;1.50;;;;;;;23.49;41.60;99486.66;10349642;28;20064;-59
2022/09/03 15:32:04;;;;;;;4.20;1.80;;;;;;;23.30;41.65;99492.53;10344321;28;20512;-59
2022/09/03 15:37:16;;;;;;;4.20;1.70;;;;;;;23.08;42.13;99492.59;10347128;28;20061;-59
2022/09/03 15:42:26;;;;;;;6.32;2.08;;;;;;;22.88;42.22;99505.59;10346250;28;20046;-59
2022/09/03 15:47:36;;;;;;;3.15;1.88;;;;;;;22.82;42.35;99518.84;10348117;28;20049;-59
2022/09/03 15:52:59;;;;;;;6.35;1.90;;;;;;;22.69;42.81;99522.91;10347197;28;20148;-59
2022/09/03 15:58:30;;;;;;;5.63;1.65;;;;;;;22.59;43.18;99525.00;10347357;28;20414;-59
2022/09/03 16:03:54;;;;;;;3.83;1.90;;;;;;;22.58;43.11;99522.47;10346654;28;20054;-59
2022/09/03 16:09:02;;;;;;;4.75;1.70;;;;;;;22.52;43.20;99534.69;10346501;28;20459;-59
2022/09/03 16:14:06;;;;;;;4.13;1.90;;;;;;;22.44;43.43;99525.91;10340902;28;20225;-59
2022/09/03 16:19:22;;;;;;;5.35;1.70;;;;;;;22.35;44.09;99527.00;10342351;28;20517;-60
2022/09/03 16:24:45;;;;;;;2.47;1.55;;;;;;;22.30;44.19;99534.66;10342633;28;20042;-59
2022/09/03 16:30:10;;;;;;;3.20;1.80;;;;;;;22.14;44.63;99526.78;10341541;28;20049;-59
2022/09/03 16:35:37;;;;;;;5.32;1.83;;;;;;;22.16;44.71;99532.75;10345962;28;20516;-59
2022/09/03 16:40:54;;;;;;;8.02;1.92;;;;;;;22.20;44.98;99550.03;10346014;28;20136;-58
2022/09/03 16:46:14;;;;;;;3.33;2.10;;;;;;;22.13;45.30;99541.09;10346170;28;20100;-59
2022/09/03 16:51:40;;;;;;;4.57;1.90;;;;;;;21.99;45.41;99552.44;10345685;28;20056;-59
2022/09/03 16:56:53;;;;;;;3.17;1.70;;;;;;;22.10;45.58;99549.44;10345443;28;20064;-58
2022/09/03 17:02:16;;;;;;;3.00;1.92;;;;;;;22.02;45.80;99552.09;10344718;28;20041;-59
2022/09/03 17:08:11;;;;;;;3.67;1.80;;;;;;;21.95;46.12;99551.97;10345774;28;20062;-59
2022/09/03 17:13:31;;;;;;;2.88;1.75;;;;;;;21.92;46.14;99557.66;10337122;28;20054;-59
2022/09/03 17:18:49;;;;;;;4.30;1.90;;;;;;;21.98;46.92;99551.63;10354982;28;20045;-59
2022/09/03 17:24:05;;;;;;;3.05;1.90;;;;;;;21.79;49.60;99557.34;10340060;28;20046;-59
2022/09/03 17:29:34;;;;;;;8.35;3.30;;;;;;;21.70;51.99;99561.06;10338230;28;20056;-59
2022/09/03 17:34:45;;;;;;;5.50;2.60;;;;;;;21.04;52.13;99558.66;10338399;28;20049;-59
2022/09/03 17:39:54;;;;;;;6.40;3.70;;;;;;;20.80;55.38;99556.00;10342174;28;20095;-59
2022/09/03 17:45:26;;;;;;;6.57;4.10;;;;;;;20.72;57.90;99569.28;10343070;28;20144;-59
2022/09/03 17:50:40;;;;;;;5.97;3.60;;;;;;;20.52;57.61;99570.56;10343243;28;20133;-59
2022/09/03 17:55:53;;;;;;;9.00;3.53;;;;;;;20.42;59.02;99578.66;10342386;28;20062;-59
2022/09/03 18:01:24;;;;;;;7.93;3.55;;;;;;;20.09;59.95;99576.91;10341484;28;20147;-59
2022/09/03 18:06:33;;;;;;;7.70;3.97;;;;;;;19.94;59.76;99587.31;10343200;28;20104;-59
2022/09/03 18:12:06;;;;;;;6.97;5.15;;;;;;;19.87;61.33;99586.25;10341749;28;20498;-59
2022/09/03 18:17:16;;;;;;;6.75;4.43;;;;;;;19.89;61.81;99592.25;10343643;28;20088;-58
2022/09/03 20:13:13;;;;;;;9.65;7.22;;;;;;;18.20;65.57;99714.41;10343955;28;20060;-58
2022/09/03 20:18:38;;;;;;;11.48;9.27;;;;;;;18.08;66.29;99718.16;10348255;28;20049;-58
2022/09/03 20:23:58;;;;;;;15.68;11.25;;;;;;;18.02;66.19;99721.38;10353286;28;20053;-58
2022/09/03 20:29:02;;;;;;;7.85;7.05;;;;;;;17.90;65.75;99722.53;10344517;28;20140;-58
2022/09/03 20:34:23;;;;;;;14.00;11.02;;;;;;;17.82;66.26;99723.25;10343799;28;20161;-58
2022/09/03 20:39:43;;;;;;;9.70;6.65;;;;;;;17.66;66.35;99717.72;10326866;28;20045;-58
2022/09/03 20:44:57;;;;;;;11.23;9.35;;;;;;;17.73;66.16;99726.72;10345079;28;20112;-58
2022/09/03 20:50:24;;;;;;;76.32;12.77;;;;;;;17.78;66.48;99735.94;10344287;28;20494;-58
2022/09/03 20:55:37;;;;;;;227.43;14.60;;;;;;;17.66;67.31;99739.72;10342073;28;20064;-58
2022/09/03 21:01:05;;;;;;;335.70;22.45;;;;;;;17.61;67.78;99747.22;10343355;28;20052;-58
2022/09/03 21:06:21;;;;;;;376.65;37.83;;;;;;;17.68;66.96;99750.97;10345026;28;20089;-58
2022/09/03 21:11:43;;;;;;;33.58;11.80;;;;;;;17.70;67.34;99762.25;10344355;28;20084;-58
2022/09/03 21:17:04;;;;;;;189.00;17.63;;;;;;;17.76;66.87;99748.47;10343557;28;20060;-58
2022/09/03 21:22:46;;;;;;;156.18;11.68;;;;;;;17.77;66.94;99751.94;10345713;28;20050;-58
2022/09/03 21:27:51;;;;;;;;;;;;;;;17.39;68.35;99757.22;10349849;28;20062;-58
2022/09/03 21:33:00;;;;;;;113.20;13.88;;;;;;;17.50;67.35;99757.94;10343046;28;19929;-58
2022/09/03 21:38:11;;;;;;;98.88;12.00;;;;;;;17.56;67.44;99759.19;10342889;28;20398;-58
2022/09/03 21:43:22;;;;;;;262.35;21.73;;;;;;;17.58;67.18;99762.53;10340114;28;20176;-58
2022/09/03 21:48:34;;;;;;;18.50;9.05;;;;;;;17.64;66.79;99775.19;10342489;28;20045;-58
2022/09/03 21:53:50;;;;;;;47.42;10.70;;;;;;;17.61;66.85;99775.47;10337234;28;20050;-58
2022/09/03 21:59:14;;;;;;;195.55;12.18;;;;;;;17.56;66.79;99781.19;10341260;28;20068;-58
2022/09/03 22:04:16;;;;;;;65.22;10.93;;;;;;;17.56;67.04;99777.69;10343204;28;20049;-58
2022/09/03 22:09:44;;;;;;;569.92;28.77;;;;;;;17.47;66.73;99786.47;10341982;28;20057;-58
2022/09/03 22:14:50;;;;;;;547.22;23.45;;;;;;;17.25;67.17;99782.25;10344070;28;20049;-58
2022/09/03 22:19:52;;;;;;;125.75;11.57;;;;;;;17.32;67.20;99782.53;10340254;28;20054;-58
2022/09/03 22:25:12;;;;;;;57.90;9.32;;;;;;;17.39;66.87;99776.59;10339076;28;20388;-58
2022/09/03 22:30:20;;;;;;;146.68;10.88;;;;;;;17.43;66.55;99783.25;10341374;28;20060;-58
2022/09/03 22:35:48;;;;;;;261.20;13.00;;;;;;;17.32;66.81;99779.91;10342355;28;20057;-58
2022/09/03 22:41:00;;;;;;;169.32;11.27;;;;;;;17.12;66.96;99797.50;10339021;28;20495;-58
2022/09/03 22:46:12;;;;;;;36.55;8.02;;;;;;;17.03;67.07;99796.53;10341977;28;20050;-58
2022/09/03 22:51:15;;;;;;;161.85;14.25;;;;;;;17.06;66.91;99798.06;10337062;28;20672;-58
2022/09/03 22:56:22;;;;;;;169.05;10.60;;;;;;;16.88;67.10;99794.41;10336212;28;20046;-58
2022/09/03 23:01:38;;;;;;;195.60;16.17;;;;;;;16.83;67.13;99796.63;10339659;28;20409;-58
2022/09/03 23:06:58;;;;;;;165.13;11.10;;;;;;;16.78;66.69;99801.47;10337548;28;20042;-58
2022/09/03 23:12:05;;;;;;;179.32;10.65;;;;;;;16.79;66.81;99813.72;10341188;28;20907;-58
2022/09/03 23:17:13;;;;;;;132.48;10.25;;;;;;;16.85;66.64;99816.63;10343572;28;20053;-58
2022/09/03 23:22:28;;;;;;;412.20;25.40;;;;;;;16.78;66.71;99815.50;10348009;28;20046;-58
2022/09/03 23:27:45;;;;;;;379.08;19.88;;;;;;;16.67;67.28;99826.16;10347078;28;20049;-58
2022/09/03 23:32:54;;;;;;;530.28;20.77;;;;;;;16.51;67.19;99839.00;10346569;28;20081;-58
2022/09/03 23:37:58;;;;;;;793.85;33.25;;;;;;;16.42;67.49;99833.66;10346625;28;20482;-58
2022/09/03 23:43:14;;;;;;;189.68;10.90;;;;;;;16.47;67.78;99834.13;10345949;28;20062;-58
2022/09/03 23:49:03;;;;;;;365.95;16.67;;;;;;;16.47;67.66;99836.78;10348232;28;20046;-58
2022/09/03 23:54:23;;;;;;;464.15;17.55;;;;;;;16.49;67.67;99834.84;10342452;28;20561;-58
2022/09/03 23:59:55;;;;;;;196.32;11.07;;;;;;;16.47;67.89;99834.97;10343906;28;20077;-58
